Time;durP1;ratioP1;P1;durP2;ratioP2;P2;SDS_P1;SDS_P2;PMS_P1;PMS_P2;Temp;Humidity;BMP_temperature;BMP_pressure;BME280_temperature;BME280_humidity;BME280_pressure;Samples;Min_cycle;Max_cycle;Signal;HPM_P1;HPM_P2
2021/08/12 00:00:11;;;;;;;;;;;;;;;21.29;57.51;101749.13;5054579;27;98985;-75
2021/08/12 00:02:37;;;;;;;;;;;;;;;21.46;57.13;101747.06;5057200;27;98858;-75
2021/08/12 00:05:05;;;;;;;;;;;;;;;21.45;57.11;101753.44;5058369;27;96853;-75
2021/08/12 00:07:31;;;;;;;;;;;;;;;21.32;57.61;101748.94;5050004;27;98256;-75
2021/08/12 00:10:00;;;;;;;;;;;;;;;21.24;57.91;101753.94;5060137;27;98999;-74
2021/08/12 00:12:26;;;;;;;;;;;;;;;21.25;58.02;101753.84;5058554;27;99259;-74
2021/08/12 00:14:52;;;;;;;;;;;;;;;21.10;58.43;101757.47;5058700;27;96811;-74
2021/08/12 00:17:18;;;;;;;;;;;;;;;20.93;58.79;101761.25;5059665;27;97042;-74
2021/08/12 00:19:45;;;;;;;;;;;;;;;21.00;58.64;101759.03;5058136;27;99155;-74
2021/08/12 00:22:11;;;;;;;;;;;;;;;21.19;57.89;101759.63;5057655;27;98813;-74
2021/08/12 00:24:38;;;;;;;;;;;;;;;20.94;58.57;101756.72;5058388;27;98218;-74
2021/08/12 00:27:05;;;;;;;;;;;;;;;21.08;57.96;101754.88;5056234;27;97082;-74
2021/08/12 00:29:32;;;;;;;;;;;;;;;21.25;57.34;101759.22;5038819;27;98913;-74
2021/08/12 00:31:58;;;;;;;;;;;;;;;21.29;57.53;101759.88;5058368;27;98052;-74
2021/08/12 00:34:25;;;;;;;;;;;;;;;21.19;57.59;101766.81;5061573;27;96966;-74
2021/08/12 00:36:51;;;;;;;;;;;;;;;21.11;57.79;101761.91;5061327;27;96849;-74
2021/08/12 00:39:17;;;;;;;;;;;;;;;21.00;58.27;101764.41;5057355;27;98899;-75
2021/08/12 00:41:44;;;;;;;;;;;;;;;20.99;58.34;101762.69;5058430;27;98749;-74
2021/08/12 00:44:11;;;;;;;;;;;;;;;21.03;58.23;101767.75;5057245;27;96806;-75
2021/08/12 00:46:37;;;;;;;;;;;;;;;21.20;57.81;101758.63;5059324;27;96787;-74
2021/08/12 00:49:04;;;;;;;;;;;;;;;21.20;57.37;101760.50;5056839;27;98963;-74
2021/08/12 00:51:31;;;;;;;;;;;;;;;21.34;57.01;101757.75;5057833;27;98950;-75
2021/08/12 00:53:57;;;;;;;;;;;;;;;21.25;56.96;101764.59;5057129;27;96737;-74
2021/08/12 00:56:23;;;;;;;;;;;;;;;21.06;58.01;101764.88;5058487;27;96773;-74
2021/08/12 00:58:50;;;;;;;;;;;;;;;21.08;57.84;101762.06;5057269;27;99271;-74
2021/08/12 01:01:17;;;;;;;;;;;;;;;20.94;58.51;101759.41;5058191;27;98835;-74
2021/08/12 01:03:43;;;;;;;;;;;;;;;20.88;59.03;101765.16;5062265;27;96894;-75
2021/08/12 01:06:11;;;;;;;;;;;;;;;21.05;58.36;101756.91;5060671;27;96863;-74
2021/08/12 01:08:42;;;;;;;;;;;;;;;20.93;58.65;101761.25;5053451;27;99330;-73
2021/08/12 01:11:14;;;;;;;;;;;;;;;20.89;58.71;101762.38;5056288;27;100245;-74
2021/08/12 01:13:46;;;;;;;;;;;;;;;20.92;58.68;101759.50;5055411;27;96829;-74
2021/08/12 01:16:17;;;;;;;;;;;;;;;20.93;58.50;101763.94;5057102;27;96970;-74
2021/08/12 01:18:46;;;;;;;;;;;;;;;20.91;58.92;101760.47;5055635;27;98919;-73
2021/08/12 01:21:21;;;;;;;;;;;;;;;20.88;58.64;101762.47;5056920;27;99227;-74
2021/08/12 01:23:48;;;;;;;;;;;;;;;20.91;58.67;101760.47;5057587;27;97098;-74
2021/08/12 01:26:18;;;;;;;;;;;;;;;20.84;58.58;101761.81;5057911;27;96767;-74
2021/08/12 01:28:45;;;;;;;;;;;;;;;20.87;58.55;101764.28;5056561;27;99494;-74
2021/08/12 01:31:19;;;;;;;;;;;;;;;20.76;59.09;101766.78;5059272;27;98094;-74
2021/08/12 01:33:56;;;;;;;;;;;;;;;20.82;58.68;101755.66;5079953;27;95934;-73
2021/08/12 01:36:24;;;;;;;;;;;;;;;20.74;58.73;101765.19;5069451;27;96761;-74
2021/08/12 01:38:51;;;;;;;;;;;;;;;20.77;58.91;101763.16;5056696;27;98874;-74
2021/08/12 01:41:18;;;;;;;;;;;;;;;20.81;59.00;101761.97;5056916;27;98856;-73
2021/08/12 01:43:44;;;;;;;;;;;;;;;20.63;59.39;101766.69;5049102;27;96719;-73
2021/08/12 01:46:11;;;;;;;;;;;;;;;20.77;58.90;101762.28;5057365;27;96908;-74
2021/08/12 01:48:37;;;;;;;;;;;;;;;20.66;59.43;101761.13;5053294;27;99068;-74
2021/08/12 01:51:05;;;;;;;;;;;;;;;20.79;58.83;101771.13;5053043;27;99001;-74
2021/08/12 01:53:33;;;;;;;;;;;;;;;20.64;59.02;101763.03;5054512;27;97006;-74
2021/08/12 01:55:59;;;;;;;;;;;;;;;20.66;59.10;101763.81;5054003;27;96802;-74
2021/08/12 01:58:28;;;;;;;;;;;;;;;20.59;59.10;101758.91;5055566;27;99201;-75
2021/08/12 02:00:55;;;;;;;;;;;;;;;20.74;59.31;101757.97;5056056;27;98550;-74
2021/08/12 02:03:22;;;;;;;;;;;;;;;20.62;59.66;101764.94;5055301;27;96736;-75
2021/08/12 02:05:49;;;;;;;;;;;;;;;20.74;59.39;101757.97;5056081;27;96931;-74
2021/08/12 02:08:18;;;;;;;;;;;;;;;20.85;59.01;101766.22;5055359;27;98901;-74
2021/08/12 02:10:45;;;;;;;;;;;;;;;20.87;58.54;101760.78;5051360;27;99044;-74
2021/08/12 02:13:12;;;;;;;;;;;;;;;20.57;59.46;101768.88;5046583;27;97213;-76
2021/08/12 02:15:39;;;;;;;;;;;;;;;20.72;59.02;101767.94;5056606;27;97069;-73
2021/08/12 02:18:05;;;;;;;;;;;;;;;20.65;59.06;101769.28;5055964;27;99463;-74
2021/08/12 02:20:32;;;;;;;;;;;;;;;20.75;58.88;101764.19;5050493;27;98866;-74
2021/08/12 02:23:01;;;;;;;;;;;;;;;20.62;59.24;101759.56;5055712;27;97239;-75
2021/08/12 02:25:31;;;;;;;;;;;;;;;20.70;58.89;101761.78;5056478;27;96829;-74
2021/08/12 02:28:00;;;;;;;;;;;;;;;20.67;58.55;101756.63;5046751;27;99320;-74
2021/08/12 02:30:33;;;;;;;;;;;;;;;20.60;58.92;101766.88;5055027;27;98786;-74
2021/08/12 02:33:00;;;;;;;;;;;;;;;20.52;59.03;101758.44;5053662;27;97132;-74
2021/08/12 02:35:26;;;;;;;;;;;;;;;20.55;58.88;101757.34;5053934;27;97376;-75
2021/08/12 02:37:54;;;;;;;;;;;;;;;20.59;58.79;101758.91;5053820;27;97576;-74
2021/08/12 02:40:21;;;;;;;;;;;;;;;20.49;58.82;101755.91;5049929;27;99199;-75
2021/08/12 02:42:47;;;;;;;;;;;;;;;20.27;59.62;101753.66;5049176;27;96999;-75
2021/08/12 02:45:15;;;;;;;;;;;;;;;20.29;59.65;101757.09;5051666;27;97278;-75
2021/08/12 02:47:42;;;;;;;;;;;;;;;20.26;59.85;101754.59;5055919;27;99348;-75
2021/08/12 02:50:09;;;;;;;;;;;;;;;20.07;60.64;101755.78;5048315;27;100458;-75
2021/08/12 02:52:36;;;;;;;;;;;;;;;20.28;59.93;101750.00;5056556;27;96878;-74
2021/08/12 02:55:03;;;;;;;;;;;;;;;20.26;60.30;101746.56;5055195;27;96832;-75
2021/08/12 02:57:30;;;;;;;;;;;;;;;20.23;60.08;101749.41;5055038;27;98876;-75
2021/08/12 02:59:56;;;;;;;;;;;;;;;20.28;59.96;101751.84;5054127;27;100530;-75
2021/08/12 03:02:24;;;;;;;;;;;;;;;20.21;60.13;101751.34;5054892;27;97042;-75
2021/08/12 03:04:51;;;;;;;;;;;;;;;20.30;59.92;101753.44;5054958;27;98017;-75
2021/08/12 03:07:18;;;;;;;;;;;;;;;20.24;59.94;101753.81;5055747;27;98888;-74
2021/08/12 03:09:48;;;;;;;;;;;;;;;20.13;60.10;101756.28;5054395;27;98901;-75
2021/08/12 03:12:15;;;;;;;;;;;;;;;20.04;60.18;101758.63;5059375;27;96722;-74
2021/08/12 03:14:42;;;;;;;;;;;;;;;20.26;59.41;101767.16;5061568;27;96783;-74
2021/08/12 03:17:11;;;;;;;;;;;;;;;20.34;59.45;101764.06;5056707;27;98305;-74
2021/08/12 03:19:39;;;;;;;;;;;;;;;20.38;59.04;101765.59;5048873;27;98124;-74
2021/08/12 03:22:06;;;;;;;;;;;;;;;20.39;59.27;101761.94;5058295;27;96940;-75
2021/08/12 03:24:33;;;;;;;;;;;;;;;20.60;58.87;101760.66;5046576;27;98156;-74
2021/08/12 03:27:00;;;;;;;;;;;;;;;20.49;58.31;101763.09;5052806;27;98851;-73
2021/08/12 03:29:26;;;;;;;;;;;;;;;20.44;58.72;101765.22;5047745;27;98534;-76
2021/08/12 03:31:52;;;;;;;;;;;;;;;20.39;58.97;101772.69;5055761;27;97060;-74
2021/08/12 03:34:19;;;;;;;;;;;;;;;20.33;59.17;101775.75;5055838;27;96828;-74
2021/08/12 03:36:46;;;;;;;;;;;;;;;20.34;59.72;101777.47;5057067;27;99259;-74
2021/08/12 03:39:13;;;;;;;;;;;;;;;20.35;59.50;101787.25;5057401;27;98022;-75
2021/08/12 03:41:39;;;;;;;;;;;;;;;20.20;60.04;101784.50;5058982;27;96753;-75
2021/08/12 03:44:05;;;;;;;;;;;;;;;20.28;60.16;101784.03;5058348;27;98453;-75
2021/08/12 03:46:32;;;;;;;;;;;;;;;20.25;59.87;101794.94;5058029;27;99257;-75
2021/08/12 03:48:58;;;;;;;;;;;;;;;20.26;60.00;101794.00;5057494;27;98879;-75
2021/08/12 03:51:24;;;;;;;;;;;;;;;20.35;59.91;101792.63;5058771;27;96784;-75
2021/08/12 03:53:52;;;;;;;;;;;;;;;20.37;59.75;101790.69;5058355;27;97787;-75
2021/08/12 03:56:18;;;;;;;;;;;;;;;20.51;59.29;101783.53;5048556;27;99270;-76
2021/08/12 03:58:44;;;;;;;;;;;;;;;20.66;59.25;101788.00;5057286;27;98856;-75
2021/08/12 04:01:10;;;;;;;;;;;;;;;20.60;58.97;101787.50;5055828;27;96972;-75
2021/08/12 04:03:36;;;;;;;;;;;;;;;20.49;58.68;101785.44;5055607;27;96799;-75
2021/08/12 04:06:03;;;;;;;;;;;;;;;20.47;58.72;101787.38;5052612;27;99455;-75
2021/08/12 04:08:31;;;;;;;;;;;;;;;20.32;59.42;101787.41;5047523;27;98991;-75
2021/08/12 04:10:58;;;;;;;;;;;;;;;20.26;59.91;101783.25;5056155;27;96853;-75
2021/08/12 04:13:25;;;;;;;;;;;;;;;20.31;59.76;101789.22;5054263;27;97157;-75
2021/08/12 04:15:51;;;;;;;;;;;;;;;20.27;59.92;101785.84;5056552;27;98562;-74
2021/08/12 04:18:17;;;;;;;;;;;;;;;20.44;59.33;101794.75;5053506;27;98837;-74
2021/08/12 04:20:43;;;;;;;;;;;;;;;20.41;59.49;101793.13;5056677;27;96791;-75
2021/08/12 04:23:09;;;;;;;;;;;;;;;20.54;59.67;101801.31;5056140;27;97025;-75
2021/08/12 04:25:36;;;;;;;;;;;;;;;20.57;59.67;101798.41;5057353;27;99158;-74
2021/08/12 04:28:03;;;;;;;;;;;;;;;20.58;59.72;101800.16;5055616;27;99051;-74
2021/08/12 04:30:30;;;;;;;;;;;;;;;20.75;59.01;101804.47;5049127;27;97369;-75
2021/08/12 04:32:56;;;;;;;;;;;;;;;20.79;58.94;101804.22;5056106;27;96754;-75
2021/08/12 04:35:22;;;;;;;;;;;;;;;20.89;58.27;101802.69;5046625;27;99455;-75
2021/08/12 04:37:49;;;;;;;;;;;;;;;20.96;58.31;101806.72;5056274;27;99150;-75
2021/08/12 04:40:16;;;;;;;;;;;;;;;20.99;58.45;101801.16;5049326;27;96838;-74
2021/08/12 04:42:42;;;;;;;;;;;;;;;21.07;58.37;101804.22;5056264;27;97565;-76
2021/08/12 04:45:11;;;;;;;;;;;;;;;21.06;58.54;101807.88;5055538;27;99203;-75
2021/08/12 04:47:38;;;;;;;;;;;;;;;21.10;58.30;101813.91;5054531;27;97638;-74
2021/08/12 04:50:04;;;;;;;;;;;;;;;21.15;58.39;101811.78;5052914;27;96659;-75
2021/08/12 04:52:31;;;;;;;;;;;;;;;21.40;57.52;101811.13;5059470;27;97101;-74
2021/08/12 04:54:57;;;;;;;;;;;;;;;21.31;58.00;101820.66;5045793;27;98902;-74
2021/08/12 04:57:23;;;;;;;;;;;;;;;21.55;57.00;101807.47;5072453;27;98851;-73
2021/08/12 04:59:50;;;;;;;;;;;;;;;21.76;56.41;101808.75;5071192;27;97162;-75
2021/08/12 05:02:17;;;;;;;;;;;;;;;21.81;56.06;101806.63;5056569;27;97244;-74
2021/08/12 05:04:44;;;;;;;;;;;;;;;22.04;55.52;101809.69;5054427;27;98087;-74
2021/08/12 05:07:10;;;;;;;;;;;;;;;22.15;55.07;101812.50;5045126;27;98707;-78
2021/08/12 05:09:36;;;;;;;;;;;;;;;22.20;55.10;101810.34;5055614;27;97035;-74
2021/08/12 05:12:03;;;;;;;;;;;;;;;22.34;54.30;101815.66;5052378;27;96862;-74
2021/08/12 05:14:29;;;;;;;;;;;;;;;22.45;53.84;101817.66;5049764;27;98403;-73
2021/08/12 05:16:55;;;;;;;;;;;;;;;22.45;53.91;101814.97;5055193;27;98980;-75
2021/08/12 05:19:23;;;;;;;;;;;;;;;22.54;53.65;101817.88;5053247;27;98123;-75
2021/08/12 05:21:49;;;;;;;;;;;;;;;22.69;53.63;101825.88;5056580;27;97016;-74
2021/08/12 05:24:15;;;;;;;;;;;;;;;22.74;53.63;101829.13;5053718;27;98957;-75
2021/08/12 05:26:42;;;;;;;;;;;;;;;22.79;53.68;101822.44;5054622;27;99488;-75
2021/08/12 05:29:08;;;;;;;;;;;;;;;22.90;53.86;101825.28;5050411;27;96939;-75
2021/08/12 05:31:35;;;;;;;;;;;;;;;22.82;54.45;101816.88;5052858;27;96872;-74
2021/08/12 05:34:01;;;;;;;;;;;;;;;23.07;53.56;101809.72;5049497;27;98806;-74
2021/08/12 05:36:29;;;;;;;;;;;;;;;23.20;52.66;101811.44;5051620;27;98788;-74
2021/08/12 05:38:57;;;;;;;;;;;;;;;23.32;52.27;101815.09;5047192;27;97438;-73
2021/08/12 05:41:24;;;;;;;;;;;;;;;23.58;51.20;101816.78;5051936;27;98834;-74
2021/08/12 05:43:51;;;;;;;;;;;;;;;24.52;49.15;101815.09;5054541;27;99280;-74
2021/08/12 05:46:17;;;;;;;;;;;;;;;26.11;45.29;101816.69;5056892;27;98849;-75
2021/08/12 05:48:43;;;;;;;;;;;;;;;25.56;45.19;101818.50;5050075;27;98011;-75
2021/08/12 05:51:09;;;;;;;;;;;;;;;25.12;46.60;101823.94;5051492;27;98337;-74
2021/08/12 05:53:37;;;;;;;;;;;;;;;25.02;46.70;101823.81;5049506;27;99350;-75
2021/08/12 05:56:04;;;;;;;;;;;;;;;24.85;46.81;101827.81;5053894;27;99088;-74
2021/08/12 05:58:32;;;;;;;;;;;;;;;24.79;47.14;101813.91;5051258;27;96877;-74
2021/08/12 06:00:58;;;;;;;;;;;;;;;24.90;46.42;101814.81;5053859;27;97088;-74
2021/08/12 06:03:25;;;;;;;;;;;;;;;24.80;46.43;101818.34;5047056;27;98801;-75
2021/08/12 06:05:55;;;;;;;;;;;;;;;24.80;46.13;101812.94;5048761;27;99056;-75
2021/08/12 06:08:21;;;;;;;;;;;;;;;24.97;45.94;101820.59;5053159;27;96825;-75
2021/08/12 06:10:49;;;;;;;;;;;;;;;25.16;44.97;101815.47;5053896;27;96928;-74
2021/08/12 06:13:15;;;;;;;;;;;;;;;25.04;44.75;101821.84;5050055;27;99143;-75
2021/08/12 06:15:42;;;;;;;;;;;;;;;24.77;45.29;101818.56;5050856;27;98841;-74
2021/08/12 06:18:08;;;;;;;;;;;;;;;24.87;45.12;101815.03;5052878;27;97041;-74
2021/08/12 06:20:34;;;;;;;;;;;;;;;25.05;44.52;101817.31;5053882;27;97398;-75
2021/08/12 06:23:01;;;;;;;;;;;;;;;25.14;45.39;101822.00;5054743;27;98913;-75
2021/08/12 06:25:28;;;;;;;;;;;;;;;25.35;44.71;101820.25;5058832;27;98798;-75
2021/08/12 06:27:55;;;;;;;;;;;;;;;25.37;44.36;101824.56;5051987;27;97366;-75
2021/08/12 06:30:22;;;;;;;;;;;;;;;25.54;44.28;101825.88;5048625;27;97686;-75
2021/08/12 06:32:48;;;;;;;;;;;;;;;25.39;45.15;101830.72;5054287;27;99342;-77
2021/08/12 06:35:15;;;;;;;;;;;;;;;25.65;44.64;101828.63;5052077;27;97687;-75
2021/08/12 06:37:42;;;;;;;;;;;;;;;25.65;44.46;101828.63;5052325;27;97892;-75
2021/08/12 06:40:09;;;;;;;;;;;;;;;25.63;44.00;101825.19;5049693;27;97061;-74
2021/08/12 06:42:35;;;;;;;;;;;;;;;25.75;43.89;101835.00;5050769;27;98918;-74
2021/08/12 06:45:03;;;;;;;;;;;;;;;25.90;43.49;101837.44;5050666;27;98849;-75
2021/08/12 06:47:29;;;;;;;;;;;;;;;26.11;43.85;101846.47;5046213;27;96930;-75
2021/08/12 06:49:58;;;;;;;;;;;;;;;26.28;42.96;101840.53;5050253;27;99105;-74
2021/08/12 06:52:24;;;;;;;;;;;;;;;26.33;42.87;101851.84;5037360;27;98901;-74
2021/08/12 06:54:50;;;;;;;;;;;;;;;26.12;42.99;101850.91;5049069;27;98919;-74
2021/08/12 06:57:17;;;;;;;;;;;;;;;26.22;42.90;101849.13;5050109;27;98342;-75
2021/08/12 06:59:43;;;;;;;;;;;;;;;26.92;41.41;101859.44;5054396;27;97120;-76
2021/08/12 07:02:12;;;;;;;;;;;;;;;28.13;37.20;101845.78;5050493;27;98875;-75
2021/08/12 07:04:38;;;;;;;;;;;;;;;28.09;36.68;101838.88;5053418;27;99200;-75
2021/08/12 07:07:05;;;;;;;;;;;;;;;27.41;38.06;101844.28;5048702;27;96994;-74
2021/08/12 07:09:31;;;;;;;;;;;;;;;27.39;37.40;101852.53;5050966;27;97348;-74
2021/08/12 07:11:57;;;;;;;;;;;;;;;27.30;38.59;101854.25;5049309;27;98872;-74
2021/08/12 07:14:24;;;;;;;;;;;;;;;27.05;38.08;101857.38;5054372;27;98869;-74
2021/08/12 07:16:50;;;;;;;;;;;;;;;27.31;37.88;101855.94;5049892;27;97522;-75
2021/08/12 07:19:18;;;;;;;;;;;;;;;27.09;37.10;101856.13;5053713;27;98692;-75
2021/08/12 07:21:44;;;;;;;;;;;;;;;27.47;36.63;101854.59;5055740;27;98768;-75
2021/08/12 07:24:11;;;;;;;;;;;;;;;28.36;34.58;101854.53;5047889;27;99133;-75
2021/08/12 07:26:38;;;;;;;;;;;;;;;28.25;34.88;101849.25;5049347;27;99041;-75
2021/08/12 07:29:04;;;;;;;;;;;;;;;28.24;35.10;101852.09;5053848;27;97018;-74
2021/08/12 07:31:31;;;;;;;;;;;;;;;28.62;34.19;101846.63;5054308;27;100338;-75
2021/08/12 07:33:57;;;;;;;;;;;;;;;28.80;33.65;101853.13;5049261;27;98826;-74
2021/08/12 07:36:25;;;;;;;;;;;;;;;28.66;33.22;101853.53;5051893;27;96926;-75
2021/08/12 07:38:51;;;;;;;;;;;;;;;28.68;33.78;101848.81;5044486;27;98305;-75
2021/08/12 07:41:18;;;;;;;;;;;;;;;28.65;32.80;101843.66;5048911;27;98912;-74
2021/08/12 07:43:44;;;;;;;;;;;;;;;28.12;33.40;101849.47;5045921;27;98904;-74
2021/08/12 07:46:11;;;;;;;;;;;;;;;28.19;33.40;101849.81;5050081;27;97118;-75
2021/08/12 07:48:37;;;;;;;;;;;;;;;28.50;33.14;101845.09;5049802;27;97018;-75
2021/08/12 07:51:04;;;;;;;;;;;;;;;28.30;33.98;101848.81;5047703;27;98963;-74
2021/08/12 07:53:31;;;;;;;;;;;;;;;28.52;34.25;101843.94;5046744;27;98875;-75
2021/08/12 07:55:58;;;;;;;;;;;;;;;28.26;34.52;101837.38;5047719;27;98944;-75
2021/08/12 07:58:24;;;;;;;;;;;;;;;28.36;34.75;101845.50;5050109;27;96941;-73
2021/08/12 08:00:50;;;;;;;;;;;;;;;28.36;34.05;101837.34;5050382;27;98864;-73
2021/08/12 08:03:17;;;;;;;;;;;;;;;28.49;33.58;101837.91;5038859;27;98775;-74
2021/08/12 08:05:43;;;;;;;;;;;;;;;28.57;33.56;101838.06;5048035;27;97097;-74
2021/08/12 08:08:09;;;;;;;;;;;;;;;28.18;33.27;101829.06;5047513;27;97887;-74
2021/08/12 08:10:37;;;;;;;;;;;;;;;27.97;33.63;101831.00;5048005;27;98981;-75
2021/08/12 08:13:03;;;;;;;;;;;;;;;28.28;33.24;101834.53;5046466;27;98911;-74
2021/08/12 08:15:30;;;;;;;;;;;;;;;28.16;33.48;101830.22;5049616;27;97719;-75
2021/08/12 08:17:56;;;;;;;;;;;;;;;28.11;33.25;101841.47;5049729;27;97004;-75
2021/08/12 08:20:22;;;;;;;;;;;;;;;28.30;33.42;101837.94;5051912;27;98909;-75
2021/08/12 08:22:49;;;;;;;;;;;;;;;28.57;32.62;101843.50;5046907;27;99575;-75
2021/08/12 08:25:15;;;;;;;;;;;;;;;28.72;32.68;101833.91;5050587;27;98078;-75
2021/08/12 08:27:43;;;;;;;;;;;;;;;28.90;32.02;101826.72;5050567;27;98588;-75
2021/08/12 08:30:10;;;;;;;;;;;;;;;28.95;31.82;101830.91;5049451;27;99205;-74
2021/08/12 08:32:36;;;;;;;;;;;;;;;28.92;31.38;101826.59;5044548;27;98818;-75
2021/08/12 08:35:03;;;;;;;;;;;;;;;28.91;31.68;101823.00;5050022;27;96819;-75
2021/08/12 08:37:29;;;;;;;;;;;;;;;29.17;31.23;101822.34;5050025;27;97152;-74
2021/08/12 08:39:55;;;;;;;;;;;;;;;29.02;32.21;101832.00;5046070;27;99398;-76
2021/08/12 08:42:22;;;;;;;;;;;;;;;29.23;31.86;101828.06;5050024;27;98002;-77
2021/08/12 08:44:50;;;;;;;;;;;;;;;28.84;31.88;101830.03;5051445;27;97069;-74
2021/08/12 08:47:18;;;;;;;;;;;;;;;29.20;31.43;101822.94;5051885;27;100468;-76
2021/08/12 08:49:47;;;;;;;;;;;;;;;28.00;32.74;101837.03;5052061;27;97738;-78
2021/08/12 08:52:14;;;;;;;;;;;;;;;27.99;33.41;101834.44;5054884;27;98076;-74
2021/08/12 08:54:41;;;;;;;;;;;;;;;28.46;32.58;101832.78;5054550;27;97110;-75
2021/08/12 08:57:08;;;;;;;;;;;;;;;28.92;32.15;101843.78;5053763;27;97090;-75
2021/08/12 08:59:35;;;;;;;;;;;;;;;28.79;31.64;101837.78;5048934;27;100369;-73
2021/08/12 09:02:05;;;;;;;;;;;;;;;29.08;31.34;101837.69;5052382;27;99033;-74
2021/08/12 09:04:32;;;;;;;;;;;;;;;29.26;31.37;101833.22;5051223;27;96826;-74
2021/08/12 09:06:58;;;;;;;;;;;;;;;29.34;31.49;101821.63;5052685;27;96905;-75
2021/08/12 09:09:24;;;;;;;;;;;;;;;29.41;31.06;101827.28;5055001;27;98324;-74
2021/08/12 09:11:51;;;;;;;;;;;;;;;29.63;30.47;101819.59;5053750;27;99119;-77
2021/08/12 09:14:32;;;;;;;;;;;;;;;29.63;29.59;101827.75;5059778;27;97506;-75
2021/08/12 09:16:58;;;;;;;;;;;;;;;29.11;30.89;101829.25;5050089;27;97112;-75
2021/08/12 09:19:26;;;;;;;;;;;;;;;28.77;30.32;101830.78;5052301;27;98956;-75
2021/08/12 09:21:53;;;;;;;;;;;;;;;28.82;31.14;101826.59;5044614;27;99450;-75
2021/08/12 09:24:19;;;;;;;;;;;;;;;29.48;30.03;101826.53;5055350;27;97158;-74
2021/08/12 09:26:46;;;;;;;;;;;;;;;29.68;30.17;101817.25;5064128;27;97348;-75
2021/08/12 09:29:25;;;;;;;;;;;;;;;29.49;30.32;101830.13;5044452;27;98778;-77
2021/08/12 09:31:56;;;;;;;;;;;;;;;29.25;29.30;101819.75;5051002;27;98975;-73
2021/08/12 09:34:22;;;;;;;;;;;;;;;29.53;29.41;101821.53;5049805;27;98639;-74
2021/08/12 09:37:02;;;;;;;;;;;;;;;29.92;29.50;101824.03;5052178;27;97454;-75
2021/08/12 09:39:29;;;;;;;;;;;;;;;30.00;29.22;101822.22;5050102;27;99462;-74
2021/08/12 09:41:56;;;;;;;;;;;;;;;30.43;27.48;101816.00;5050044;27;99188;-75
2021/08/12 09:44:33;;;;;;;;;;;;;;;29.81;28.98;101818.75;5047928;27;97057;-73
2021/08/12 09:47:02;;;;;;;;;;;;;;;30.25;28.33;101825.22;5047786;27;99061;-75
2021/08/12 09:49:36;;;;;;;;;;;;;;;29.74;29.07;101818.50;5050252;27;99020;-76
2021/08/12 09:52:15;;;;;;;;;;;;;;;29.78;29.40;101821.78;5051665;27;98795;-75
2021/08/12 09:54:41;;;;;;;;;;;;;;;29.77;29.20;101825.53;5051798;27;97837;-75
2021/08/12 09:57:14;;;;;;;;;;;;;;;30.08;29.09;101825.03;5051290;27;97208;-76
2021/08/12 09:59:46;;;;;;;;;;;;;;;30.13;28.79;101815.56;5047222;27;97330;-74
2021/08/12 10:02:13;;;;;;;;;;;;;;;30.42;27.86;101817.00;5052257;27;99154;-75
2021/08/12 10:04:39;;;;;;;;;;;;;;;30.01;27.41;101818.50;5051364;27;96976;-74
2021/08/12 10:07:05;;;;;;;;;;;;;;;29.85;27.65;101817.44;5051093;27;97208;-74
2021/08/12 10:09:41;;;;;;;;;;;;;;;30.15;27.82;101822.56;5048498;27;99350;-77
2021/08/12 10:12:08;;;;;;;;;;;;;;;30.02;26.04;101824.81;5052258;27;97722;-76
2021/08/12 10:14:34;;;;;;;;;;;;;;;29.95;26.57;101818.25;5050991;27;97542;-75
2021/08/12 10:17:00;;;;;;;;;;;;;;;30.16;27.39;101816.09;5053251;27;96937;-73
2021/08/12 10:19:28;;;;;;;;;;;;;;;30.22;27.66;101818.19;5047936;27;99649;-75
2021/08/12 10:21:54;;;;;;;;;;;;;;;30.25;27.17;101817.03;5049178;27;99394;-74
2021/08/12 10:24:26;;;;;;;;;;;;;;;30.01;27.19;101821.22;5049319;27;97180;-75
2021/08/12 10:26:56;;;;;;;;;;;;;;;30.24;27.45;101818.91;5049624;27;97381;-74
2021/08/12 10:29:23;;;;;;;;;;;;;;;30.09;27.98;101809.53;5050306;27;98849;-75
2021/08/12 10:31:52;;;;;;;;;;;;;;;30.34;26.55;101816.06;5054279;27;98839;-76
2021/08/12 10:34:19;;;;;;;;;;;;;;;30.38;26.47;101814.75;5052264;27;97651;-75
2021/08/12 10:36:45;;;;;;;;;;;;;;;30.46;25.89;101812.09;5052815;27;97065;-75
2021/08/12 10:39:12;;;;;;;;;;;;;;;29.95;25.49;101805.50;5054104;27;98220;-75
2021/08/12 10:41:41;;;;;;;;;;;;;;;30.49;25.64;101807.22;5050197;27;100356;-75
2021/08/12 10:44:09;;;;;;;;;;;;;;;30.40;26.07;101813.56;5051609;27;96898;-75
2021/08/12 10:46:37;;;;;;;;;;;;;;;30.45;25.92;101799.50;5054588;27;98474;-74
2021/08/12 10:49:22;;;;;;;;;;;;;;;30.24;26.05;101807.13;5053090;27;98907;-77
2021/08/12 10:51:52;;;;;;;;;;;;;;;30.24;25.62;101797.09;5053315;27;100715;-77
2021/08/12 10:54:19;;;;;;;;;;;;;;;30.40;25.37;101797.22;5054255;27;97112;-76
2021/08/12 10:56:46;;;;;;;;;;;;;;;29.61;27.31;101788.91;5054982;27;96974;-77
2021/08/12 10:59:14;;;;;;;;;;;;;;;29.89;27.29;101791.59;5058681;27;101478;-76
2021/08/12 11:01:41;;;;;;;;;;;;;;;30.08;26.42;101786.03;5051183;27;100077;-76
2021/08/12 11:04:08;;;;;;;;;;;;;;;30.22;27.08;101782.75;5049701;27;97573;-77
2021/08/12 11:06:40;;;;;;;;;;;;;;;29.47;29.03;101769.53;5052714;27;98193;-76
2021/08/12 11:09:08;;;;;;;;;;;;;;;29.73;28.70;101776.78;5043921;27;97627;-75
2021/08/12 11:11:54;;;;;;;;;;;;;;;29.88;28.26;101773.53;5051284;27;98885;-75
2021/08/12 11:14:35;;;;;;;;;;;;;;;30.07;27.73;101773.41;5053414;27;96731;-75
2021/08/12 11:17:03;;;;;;;;;;;;;;;29.93;26.92;101771.25;5046374;27;97082;-74
2021/08/12 11:19:36;;;;;;;;;;;;;;;30.22;27.15;101776.44;5053001;27;100987;-76
2021/08/12 11:22:02;;;;;;;;;;;;;;;30.13;27.01;101771.94;5055760;27;98838;-73
2021/08/12 11:24:56;;;;;;;;;;;;;;;29.85;26.88;101772.00;5054163;27;97129;-75
2021/08/12 11:27:52;;;;;;;;;;;;;;;30.02;26.00;101770.31;5018878;27;96839;-76
2021/08/12 11:30:48;;;;;;;;;;;;;;;30.09;26.40;101769.53;5010605;28;100034;-75
2021/08/12 11:33:38;;;;;;;;;;;;;;;30.09;26.04;101766.81;5049182;27;98883;-75
2021/08/12 11:36:10;;;;;;;;;;;;;;;30.13;25.56;101764.59;5042692;27;97149;-76
2021/08/12 11:38:37;;;;;;;;;;;;;;;30.11;26.48;101763.94;5053716;27;98578;-75
2021/08/12 11:41:04;;;;;;;;;;;;;;;29.56;27.07;101761.28;5054285;27;99095;-75
2021/08/12 11:43:30;;;;;;;;;;;;;;;29.84;26.96;101761.25;5053537;27;98888;-75
2021/08/12 11:45:57;;;;;;;;;;;;;;;30.05;26.87;101754.50;5054377;27;96884;-76
2021/08/12 11:48:46;;;;;;;;;;;;;;;30.05;26.09;101767.28;5057596;27;97131;-74
2021/08/12 11:51:14;;;;;;;;;;;;;;;30.21;25.00;101753.78;5053022;27;96872;-76
2021/08/12 11:53:48;;;;;;;;;;;;;;;30.15;24.88;101759.00;5054084;27;98817;-75
2021/08/12 11:56:17;;;;;;;;;;;;;;;29.97;25.56;101759.88;5055301;27;96792;-74
2021/08/12 11:58:45;;;;;;;;;;;;;;;30.41;24.91;101757.16;5059910;27;97256;-73
2021/08/12 12:01:16;;;;;;;;;;;;;;;30.35;25.13;101758.66;5060684;27;99394;-76
2021/08/12 12:03:44;;;;;;;;;;;;;;;30.52;24.95;101764.28;5048167;27;98150;-75
2021/08/12 12:06:10;;;;;;;;;;;;;;;30.47;24.94;101770.16;5052663;27;97454;-76
2021/08/12 12:08:38;;;;;;;;;;;;;;;30.30;23.80;101762.88;5046558;27;97967;-75
2021/08/12 12:11:08;;;;;;;;;;;;;;;30.26;23.70;101762.31;5050424;27;99110;-74
2021/08/12 12:13:34;;;;;;;;;;;;;;;30.07;23.91;101759.78;5054466;27;98857;-74
2021/08/12 12:16:01;;;;;;;;;;;;;;;30.25;23.79;101752.47;5050004;27;98319;-74
2021/08/12 12:18:31;;;;;;;;;;;;;;;29.91;24.93;101752.28;5053043;27;96969;-76
2021/08/12 12:21:02;;;;;;;;;;;;;;;30.21;24.91;101759.22;5050411;27;98929;-73
2021/08/12 12:23:28;;;;;;;;;;;;;;;30.19;25.10;101757.69;5049869;27;98752;-74
2021/08/12 12:25:56;;;;;;;;;;;;;;;30.51;24.87;101759.84;5046680;27;97319;-75
2021/08/12 12:28:22;;;;;;;;;;;;;;;30.68;25.49;101746.16;5052128;27;97071;-75
2021/08/12 12:30:49;;;;;;;;;;;;;;;30.58;24.97;101753.59;5049659;27;99267;-78
2021/08/12 12:33:16;;;;;;;;;;;;;;;30.39;25.50;101746.41;5052000;27;97598;-74
2021/08/12 12:35:44;;;;;;;;;;;;;;;30.47;25.13;101748.34;5055003;27;97309;-73
2021/08/12 12:38:13;;;;;;;;;;;;;;;30.58;25.00;101755.47;5049825;27;97373;-74